Time;durP1;ratioP1;P1;durP2;ratioP2;P2;SDS_P1;SDS_P2;PMS_P1;PMS_P2;Temp;Humidity;BMP_temperature;BMP_pressure;BME280_temperature;BME280_humidity;BME280_pressure;Samples;Min_cycle;Max_cycle;Signal;HPM_P1;HPM_P2
2023/10/18 00:01:25;;;;;;;32.30;15.50;;;5.60;99.90;;;;;;5110990;28;20368;-74
2023/10/18 00:03:56;;;;;;;36.67;16.65;;;5.70;99.90;;;;;;5111470;28;20373;-74
2023/10/18 00:06:23;;;;;;;37.30;17.35;;;5.60;99.90;;;;;;5110768;28;20068;-73
2023/10/18 00:08:49;;;;;;;36.55;16.67;;;5.60;99.90;;;;;;5111162;28;20027;-74
2023/10/18 00:11:16;;;;;;;41.35;17.30;;;5.70;99.90;;;;;;5099028;28;20015;-73
2023/10/18 00:13:45;;;;;;;39.97;17.70;;;5.70;99.90;;;;;;5111292;28;20031;-74
2023/10/18 00:16:12;;;;;;;36.25;17.00;;;5.70;99.90;;;;;;5092611;28;20024;-73
2023/10/18 00:18:38;;;;;;;38.10;17.83;;;5.70;99.90;;;;;;5094498;28;20471;-74
2023/10/18 00:21:08;;;;;;;39.40;17.35;;;5.60;99.90;;;;;;5126630;27;20034;-74
2023/10/18 00:23:34;;;;;;;36.55;17.08;;;5.60;99.90;;;;;;5110704;28;20042;-74
2023/10/18 00:26:08;;;;;;;36.60;17.15;;;5.60;99.90;;;;;;5110266;28;20036;-74
2023/10/18 00:28:36;;;;;;;39.45;17.50;;;5.60;99.90;;;;;;5109805;28;20027;-73
2023/10/18 00:31:12;;;;;;;39.45;17.60;;;5.60;99.90;;;;;;5110873;28;20143;-73
2023/10/18 00:33:39;;;;;;;36.15;16.73;;;5.60;99.90;;;;;;5109615;28;20023;-74
2023/10/18 00:36:05;;;;;;;38.72;17.25;;;5.50;99.90;;;;;;5110596;28;20110;-73
2023/10/18 00:38:30;;;;;;;40.92;18.15;;;5.40;99.90;;;;;;5109532;28;20102;-74
2023/10/18 00:40:56;;;;;;;38.83;17.25;;;5.30;99.90;;;;;;5108362;28;20023;-74
2023/10/18 00:43:25;;;;;;;38.00;16.27;;;5.30;99.90;;;;;;5108951;28;20028;-74
2023/10/18 00:45:52;;;;;;;38.70;17.23;;;5.20;99.90;;;;;;5110515;28;20015;-74
2023/10/18 00:48:26;;;;;;;39.90;17.42;;;5.10;99.90;;;;;;5109679;28;20036;-73
2023/10/18 00:50:54;;;;;;;34.10;16.63;;;5.00;99.90;;;;;;5110145;28;20491;-74
2023/10/18 00:53:22;;;;;;;38.70;16.73;;;5.00;99.90;;;;;;5109379;28;20020;-73
2023/10/18 00:55:52;;;;;;;35.30;16.02;;;4.90;99.90;;;;;;5110834;28;20035;-74
2023/10/18 00:58:20;;;;;;;43.15;18.30;;;4.90;99.90;;;;;;5109375;28;20363;-73
2023/10/18 01:00:48;;;;;;;40.33;16.80;;;5.00;99.90;;;;;;5109682;28;20116;-73
2023/10/18 01:03:30;;;;;;;42.17;17.27;;;5.00;99.90;;;;;;5091650;28;20031;-74
2023/10/18 01:06:20;;;;;;;38.97;17.58;;;4.90;99.90;;;;;;5091365;28;20031;-74
2023/10/18 01:08:47;;;;;;;41.03;18.63;;;4.90;99.90;;;;;;5109655;28;20030;-74
2023/10/18 01:11:14;;;;;;;41.25;18.05;;;4.90;99.90;;;;;;5110416;28;20027;-74
2023/10/18 01:13:45;;;;;;;39.63;18.02;;;4.90;99.90;;;;;;5109682;28;20023;-74
2023/10/18 01:16:35;;;;;;;;;;;5.00;99.90;;;;;;5110647;28;20520;-74
2023/10/18 01:18:57;;;;;;;39.00;17.55;;;4.90;99.90;;;;;;5108694;28;20511;-73
2023/10/18 01:21:23;;;;;;;43.50;18.00;;;4.90;99.90;;;;;;5109241;28;20031;-73
2023/10/18 01:23:54;;;;;;;42.47;18.08;;;4.90;99.90;;;;;;5109952;28;20136;-75
2023/10/18 01:26:23;;;;;;;42.10;17.98;;;4.80;99.90;;;;;;5109259;28;20039;-73
2023/10/18 01:28:50;;;;;;;44.35;17.83;;;4.80;99.90;;;;;;5109135;28;20383;-74
2023/10/18 01:31:16;;;;;;;42.00;19.00;;;4.80;99.90;;;;;;5109116;28;20054;-74
2023/10/18 01:33:50;;;;;;;42.20;17.85;;;4.80;99.90;;;;;;5108925;28;20402;-74
2023/10/18 01:36:17;;;;;;;37.63;16.83;;;4.80;99.90;;;;;;5110027;28;20030;-73
2023/10/18 01:38:52;;;;;;;41.78;16.83;;;4.80;99.90;;;;;;5108976;28;20023;-74
2023/10/18 01:41:34;;;;;;;44.10;18.33;;;4.80;99.90;;;;;;5109591;28;20060;-73
2023/10/18 01:44:07;;;;;;;40.75;16.83;;;4.80;99.90;;;;;;5109801;28;20393;-74
2023/10/18 01:46:48;;;;;;;37.67;18.02;;;4.70;99.90;;;;;;5108122;28;20884;-74
2023/10/18 01:49:18;;;;;;;39.47;17.35;;;4.70;99.90;;;;;;5108779;28;20055;-74
2023/10/18 01:51:47;;;;;;;44.78;18.95;;;4.80;99.90;;;;;;5102883;28;20467;-74
2023/10/18 01:54:13;;;;;;;37.83;17.95;;;4.70;99.90;;;;;;5093322;28;20024;-74
2023/10/18 01:56:41;;;;;;;39.33;17.98;;;4.70;99.90;;;;;;5108667;28;20027;-74
2023/10/18 01:59:19;;;;;;;42.15;18.35;;;4.70;99.90;;;;;;5108526;28;20016;-74
2023/10/18 02:01:47;;;;;;;40.83;18.50;;;4.70;99.90;;;;;;5089986;28;20033;-74
2023/10/18 02:04:37;;;;;;;39.65;17.77;;;4.70;99.90;;;;;;5109337;28;20019;-74
2023/10/18 02:07:02;;;;;;;39.03;17.83;;;4.60;99.90;;;;;;5107793;28;20071;-74
2023/10/18 02:09:35;;;;;;;43.40;18.25;;;4.60;99.90;;;;;;5108536;28;20039;-73
2023/10/18 02:12:04;;;;;;;41.45;17.85;;;4.50;99.90;;;;;;5108350;28;20062;-74
2023/10/18 02:14:33;;;;;;;42.33;19.15;;;4.60;99.90;;;;;;5094399;28;20374;-73
2023/10/18 02:17:01;;;;;;;41.45;19.55;;;4.60;99.90;;;;;;5107032;28;20065;-75
2023/10/18 02:19:27;;;;;;;41.13;18.98;;;4.60;99.90;;;;;;5105220;28;20104;-74
2023/10/18 02:21:59;;;;;;;40.97;18.58;;;4.60;99.90;;;;;;5106642;28;20032;-73
2023/10/18 02:24:24;;;;;;;42.75;19.45;;;4.60;99.90;;;;;;5103937;28;20046;-71
2023/10/18 02:27:00;;;;;;;39.47;18.63;;;4.60;99.90;;;;;;5101042;28;20023;-73
2023/10/18 02:29:27;;;;;;;46.55;19.60;;;4.60;99.90;;;;;;5106883;28;20028;-73
2023/10/18 02:31:57;;;;;;;46.40;19.17;;;4.60;99.90;;;;;;5090561;28;20138;-71
2023/10/18 02:34:25;;;;;;;43.72;19.63;;;4.60;99.90;;;;;;5108646;28;20027;-72
2023/10/18 02:36:52;;;;;;;45.40;19.80;;;4.60;99.90;;;;;;5108562;28;20020;-73
2023/10/18 02:39:23;;;;;;;41.53;18.70;;;4.60;99.90;;;;;;5108994;28;20034;-73
2023/10/18 02:41:49;;;;;;;49.17;19.80;;;4.60;99.90;;;;;;5108068;28;20060;-73
2023/10/18 02:44:23;;;;;;;46.65;19.40;;;4.60;99.90;;;;;;5109242;28;20023;-73
2023/10/18 02:46:54;;;;;;;47.95;18.95;;;4.50;99.90;;;;;;5086700;28;20448;-73
2023/10/18 02:49:23;;;;;;;44.03;19.55;;;4.50;99.90;;;;;;5089191;28;20036;-73
2023/10/18 02:51:50;;;;;;;47.42;20.23;;;4.50;99.90;;;;;;5108526;28;20028;-74
2023/10/18 02:54:16;;;;;;;44.08;19.40;;;4.60;99.90;;;;;;5108846;28;20016;-74
2023/10/18 02:56:52;;;;;;;40.83;19.58;;;4.60;99.90;;;;;;5108190;28;20030;-74
2023/10/18 02:59:24;;;;;;;45.50;19.15;;;4.50;99.90;;;;;;5106482;28;20027;-74
2023/10/18 03:01:54;;;;;;;42.78;20.17;;;4.60;99.90;;;;;;5107525;28;20467;-74
2023/10/18 03:04:22;;;;;;;32.95;14.50;;;4.60;99.90;;;;;;5109124;28;20061;-74
2023/10/18 03:06:52;;;;;;;46.80;20.85;;;4.50;99.90;;;;;;5109016;28;20031;-74
2023/10/18 03:09:38;;;;;;;48.30;20.65;;;4.50;99.90;;;;;;5108432;28;20032;-74
2023/10/18 03:12:06;;;;;;;53.13;21.55;;;4.50;99.90;;;;;;5109133;28;20032;-74
2023/10/18 03:14:41;;;;;;;48.53;20.35;;;4.40;99.90;;;;;;5107924;28;20529;-74
2023/10/18 03:17:22;;;;;;;48.05;19.85;;;4.50;99.90;;;;;;5107846;28;20038;-75
2023/10/18 03:19:54;;;;;;;48.53;21.63;;;4.50;99.90;;;;;;5107313;28;20036;-74
2023/10/18 03:22:26;;;;;;;49.83;21.25;;;4.40;99.90;;;;;;5108203;28;20036;-74
2023/10/18 03:24:56;;;;;;;55.10;21.65;;;4.40;99.90;;;;;;5108411;28;20031;-73
2023/10/18 03:27:33;;;;;;;54.15;22.08;;;4.40;99.90;;;;;;5108347;28;20072;-75
2023/10/18 03:30:07;;;;;;;54.63;22.88;;;4.40;99.90;;;;;;5111638;28;20661;-74
2023/10/18 03:32:34;;;;;;;53.33;22.90;;;4.40;99.90;;;;;;5112043;28;20467;-74
2023/10/18 03:35:00;;;;;;;46.60;21.90;;;4.40;99.90;;;;;;5112192;28;20023;-74
2023/10/18 03:37:25;;;;;;;47.53;21.80;;;4.40;99.90;;;;;;5112005;28;20027;-73
2023/10/18 03:39:55;;;;;;;50.35;22.42;;;4.40;99.90;;;;;;5111610;28;20059;-74
2023/10/18 03:42:33;;;;;;;52.58;22.77;;;4.40;99.90;;;;;;5111591;28;20035;-74
2023/10/18 03:45:10;;;;;;;54.67;24.33;;;4.40;99.90;;;;;;5111904;28;20034;-74
2023/10/18 03:47:37;;;;;;;52.10;22.85;;;4.40;99.90;;;;;;5104281;27;20023;-74
2023/10/18 03:50:08;;;;;;;49.17;23.35;;;4.40;99.90;;;;;;5112659;28;20031;-74
2023/10/18 03:52:34;;;;;;;52.28;23.85;;;4.40;99.90;;;;;;5111164;28;20027;-74
2023/10/18 03:57:54;;;;;;;47.67;21.33;;;4.40;99.90;;;;;;5092858;28;20040;-74
2023/10/18 04:02:53;;;;;;;49.88;21.42;;;4.40;99.90;;;;;;5111398;28;20020;-73
2023/10/18 04:05:30;;;;;;;46.05;21.50;;;4.40;99.90;;;;;;5092966;28;20047;-74
2023/10/18 04:07:56;;;;;;;50.08;21.42;;;4.40;99.90;;;;;;5109240;28;20042;-74
2023/10/18 04:10:24;;;;;;;47.22;22.33;;;4.40;99.90;;;;;;5111174;28;20659;-74
2023/10/18 04:12:50;;;;;;;52.67;22.35;;;4.40;99.90;;;;;;5110606;28;20430;-73
2023/10/18 04:15:22;;;;;;;47.00;21.13;;;4.40;99.90;;;;;;5114825;27;20472;-75
2023/10/18 04:20:33;;;;;;;47.92;21.60;;;4.40;99.90;;;;;;5109056;28;20447;-74
2023/10/18 04:23:02;;;;;;;52.05;21.90;;;4.50;99.90;;;;;;5111366;28;20043;-74
2023/10/18 04:25:31;;;;;;;51.95;22.30;;;4.50;99.90;;;;;;5111444;28;20049;-73
2023/10/18 04:27:58;;;;;;;49.67;22.05;;;4.40;99.90;;;;;;5111545;28;20030;-74
2023/10/18 04:30:24;;;;;;;49.78;21.98;;;4.40;99.90;;;;;;5092322;28;20058;-74
2023/10/18 04:35:36;;;;;;;50.55;21.60;;;4.40;99.90;;;;;;5110704;28;20097;-73
2023/10/18 04:38:20;;;;;;;50.33;22.65;;;4.50;99.90;;;;;;5111275;28;20019;-74
2023/10/18 04:40:55;;;;;;;51.05;22.98;;;4.40;99.90;;;;;;5108639;28;20110;-75
2023/10/18 04:43:25;;;;;;;50.78;22.33;;;4.40;99.90;;;;;;5110734;28;20036;-74
2023/10/18 04:46:02;;;;;;;54.90;23.35;;;4.40;99.90;;;;;;5109789;28;20081;-73
2023/10/18 04:48:59;;;;;;;53.35;22.70;;;4.50;99.90;;;;;;5110929;28;20043;-75
2023/10/18 04:51:27;;;;;;;61.63;23.80;;;4.50;99.90;;;;;;5109951;28;20035;-72
2023/10/18 04:54:03;;;;;;;58.80;24.92;;;4.40;99.90;;;;;;5108126;28;20862;-73
2023/10/18 04:56:34;;;;;;;54.42;23.35;;;4.40;99.90;;;;;;5110577;28;20051;-73
2023/10/18 04:59:00;;;;;;;63.03;24.23;;;4.40;99.90;;;;;;5110104;28;20367;-73
2023/10/18 05:01:33;;;;;;;60.22;25.00;;;4.40;99.90;;;;;;5110117;28;20043;-73
2023/10/18 05:04:14;;;;;;;57.20;24.83;;;4.40;99.90;;;;;;5110681;28;20030;-74
2023/10/18 05:06:42;;;;;;;59.67;25.63;;;4.30;99.90;;;;;;5091863;28;20112;-73
2023/10/18 05:09:08;;;;;;;62.80;25.88;;;4.30;99.90;;;;;;5110576;28;20055;-74
2023/10/18 05:11:46;;;;;;;58.03;25.67;;;4.30;99.90;;;;;;5109966;28;20055;-73
2023/10/18 05:14:19;;;;;;;59.58;25.85;;;4.30;99.90;;;;;;5110269;28;20032;-74
2023/10/18 05:16:46;;;;;;;58.17;26.65;;;4.40;99.90;;;;;;5109541;28;20447;-74
2023/10/18 05:19:13;;;;;;;54.38;23.63;;;4.40;99.90;;;;;;5110370;28;20470;-74
2023/10/18 05:21:39;;;;;;;57.80;24.55;;;4.40;99.90;;;;;;5109780;28;20050;-74
2023/10/18 05:24:05;;;;;;;58.03;25.15;;;4.40;99.90;;;;;;5110463;28;20030;-74
2023/10/18 05:26:33;;;;;;;60.65;25.35;;;4.40;99.90;;;;;;5110012;28;20040;-73
2023/10/18 05:29:03;;;;;;;56.25;24.25;;;4.40;99.90;;;;;;5110325;28;20033;-73
2023/10/18 05:34:48;;;;;;;60.72;24.67;;;4.40;99.90;;;;;;5109395;28;20080;-74
2023/10/18 05:42:13;;;;;;;60.45;25.75;;;4.40;99.90;;;;;;5059271;28;20045;-74
2023/10/18 05:44:41;;;;;;;55.42;25.08;;;4.40;99.90;;;;;;5070760;28;20028;-74
2023/10/18 05:47:08;;;;;;;58.40;24.65;;;4.40;99.90;;;;;;5097258;28;20020;-74
2023/10/18 05:49:40;;;;;;;57.58;25.60;;;4.40;99.90;;;;;;5109486;28;20036;-73
2023/10/18 05:54:32;;;;;;;59.47;24.83;;;4.30;99.90;;;;;;5109893;28;20658;-73
2023/10/18 05:56:58;;;;;;;59.25;26.33;;;4.30;99.90;;;;;;5109066;28;20028;-73
2023/10/18 05:59:33;;;;;;;58.00;26.00;;;4.30;99.90;;;;;;5109707;28;20023;-74
2023/10/18 06:02:00;;;;;;;64.70;26.17;;;4.30;99.90;;;;;;5090702;28;20054;-73
2023/10/18 06:04:37;;;;;;;62.08;25.70;;;4.30;99.90;;;;;;5109882;28;20019;-74
2023/10/18 06:07:10;;;;;;;64.72;24.98;;;4.30;99.90;;;;;;5109646;28;20032;-73
2023/10/18 06:09:58;;;;;;;63.70;26.92;;;4.30;99.90;;;;;;5109172;28;20028;-71
2023/10/18 06:12:27;;;;;;;62.53;25.25;;;4.40;99.90;;;;;;5109524;28;20047;-74
2023/10/18 06:14:54;;;;;;;65.00;27.08;;;4.40;99.90;;;;;;5110049;27;20040;-74
2023/10/18 06:17:26;;;;;;;65.68;26.52;;;4.40;99.90;;;;;;5120785;27;20054;-74
2023/10/18 06:19:52;;;;;;;57.95;25.27;;;4.50;99.90;;;;;;5108548;28;20043;-74
2023/10/18 06:25:03;;;;;;;65.43;24.90;;;4.60;99.90;;;;;;5109356;28;20168;-74
2023/10/18 06:27:38;;;;;;;55.97;25.77;;;4.70;99.90;;;;;;5124725;27;20112;-73
2023/10/18 06:30:14;;;;;;;55.13;24.48;;;4.70;99.90;;;;;;5109013;28;20122;-74
2023/10/18 06:32:41;;;;;;;58.28;25.40;;;4.70;99.90;;;;;;5108394;28;20356;-74
2023/10/18 06:35:15;;;;;;;56.03;25.15;;;4.70;99.90;;;;;;5109437;28;20019;-74
2023/10/18 06:37:41;;;;;;;62.53;24.90;;;4.70;99.90;;;;;;5108095;28;20035;-74
2023/10/18 06:40:40;;;;;;;56.83;24.98;;;4.80;99.90;;;;;;5108706;28;20038;-73
2023/10/18 06:43:06;;;;;;;58.30;24.42;;;4.80;99.90;;;;;;5088532;28;20028;-74
2023/10/18 06:45:37;;;;;;;59.97;25.25;;;4.80;99.90;;;;;;5088666;28;20059;-74
2023/10/18 06:48:03;;;;;;;;;;;4.90;99.90;;;;;;5103899;28;20039;-73
2023/10/18 06:50:29;;;;;;;52.60;22.35;;;4.80;99.90;;;;;;5108837;28;19920;-74
2023/10/18 06:52:56;;;;;;;55.53;24.92;;;4.90;99.90;;;;;;5108159;28;20042;-74
2023/10/18 07:01:05;;;;;;;60.53;26.10;;;4.90;99.90;;;;;;5083533;28;20047;-74
2023/10/18 07:03:33;;;;;;;57.97;25.60;;;5.00;99.90;;;;;;5109535;28;20059;-74
2023/10/18 07:06:04;;;;;;;58.22;25.52;;;5.10;99.90;;;;;;5111963;28;20031;-74
2023/10/18 07:08:33;;;;;;;;;;;5.20;99.90;;;;;;5113580;28;20024;-74
2023/10/18 07:11:01;;;;;;;51.53;23.27;;;5.30;99.90;;;;;;5112388;28;19900;-74
2023/10/18 07:13:34;;;;;;;55.92;23.55;;;5.40;99.90;;;;;;5112474;28;20472;-74
2023/10/18 07:21:38;;;;;;;56.35;24.58;;;5.60;99.90;;;;;;5092475;28;20078;-74
2023/10/18 07:24:09;;;;;;;53.28;23.58;;;5.60;99.90;;;;;;5111632;28;20044;-74
2023/10/18 07:26:38;;;;;;;54.30;24.67;;;5.60;99.90;;;;;;5094467;28;20035;-74
2023/10/18 07:29:06;;;;;;;55.80;24.50;;;5.60;99.90;;;;;;5112184;28;20097;-74
2023/10/18 07:31:38;;;;;;;54.22;24.88;;;5.60;99.90;;;;;;5112425;28;20138;-74
2023/10/18 07:34:09;;;;;;;52.75;24.35;;;5.60;99.90;;;;;;5111325;28;20104;-74
2023/10/18 07:36:38;;;;;;;54.58;23.48;;;5.70;99.90;;;;;;5112778;28;20109;-74
2023/10/18 07:39:05;;;;;;;58.20;23.88;;;5.80;99.90;;;;;;5111865;28;20028;-74
2023/10/18 07:41:36;;;;;;;54.00;22.90;;;5.80;99.90;;;;;;5112502;28;20035;-73
2023/10/18 07:44:05;;;;;;;53.28;22.10;;;5.80;99.90;;;;;;5111389;28;20108;-74
2023/10/18 07:46:34;;;;;;;53.35;24.00;;;5.90;99.90;;;;;;5111953;28;20059;-73
2023/10/18 07:49:11;;;;;;;52.80;23.00;;;6.00;99.90;;;;;;5092609;28;20544;-73
2023/10/18 07:51:43;;;;;;;48.63;21.48;;;6.00;99.90;;;;;;5093826;28;20192;-74
2023/10/18 07:54:14;;;;;;;52.53;23.52;;;6.00;99.90;;;;;;5112092;28;20380;-74
2023/10/18 07:56:48;;;;;;;46.35;21.75;;;6.10;99.90;;;;;;5112135;28;20027;-74
2023/10/18 07:59:30;;;;;;;45.25;21.55;;;6.30;99.90;;;;;;5093615;28;20063;-74
2023/10/18 08:02:13;;;;;;;45.15;21.20;;;6.40;99.90;;;;;;5110882;28;20027;-74
2023/10/18 08:04:42;;;;;;;48.97;20.27;;;6.60;99.90;;;;;;5112308;28;20062;-73
2023/10/18 08:07:15;;;;;;;44.03;20.05;;;6.60;99.90;;;;;;5111894;28;20118;-74
2023/10/18 08:09:41;;;;;;;40.10;19.25;;;6.60;99.90;;;;;;5111595;28;20038;-72
2023/10/18 08:12:15;;;;;;;50.42;21.13;;;6.60;99.90;;;;;;5111535;28;20023;-74
2023/10/18 08:14:47;;;;;;;45.17;19.95;;;6.70;99.90;;;;;;5118910;27;20067;-73
2023/10/18 08:17:29;;;;;;;42.47;19.58;;;6.80;99.90;;;;;;5123643;27;20047;-74
2023/10/18 08:20:29;;;;;;;42.72;19.40;;;7.00;99.90;;;;;;5092527;28;20036;-72
2023/10/18 08:23:04;;;;;;;42.67;19.35;;;7.20;99.90;;;;;;5090704;28;20081;-74
2023/10/18 08:25:31;;;;;;;39.28;18.48;;;7.30;99.90;;;;;;5091504;28;20067;-74
2023/10/18 08:27:59;;;;;;;41.13;19.40;;;7.40;99.90;;;;;;5090609;28;20026;-74
2023/10/18 08:33:10;;;;;;;34.88;17.23;;;7.70;99.90;;;;;;5091028;28;20035;-73
2023/10/18 08:35:36;;;;;;;37.30;17.25;;;7.70;99.90;;;;;;5091264;28;20119;-75
2023/10/18 08:38:02;;;;;;;35.60;16.95;;;7.80;99.90;;;;;;5090227;28;20547;-73
2023/10/18 08:43:06;;;;;;;34.92;16.25;;;8.00;99.90;;;;;;5110833;28;20041;-73
2023/10/18 08:45:46;;;;;;;36.03;16.50;;;8.10;99.90;;;;;;5111236;28;20024;-75
2023/10/18 08:48:28;;;;;;;39.25;17.30;;;8.10;99.90;;;;;;5111424;28;20024;-74
2023/10/18 08:50:56;;;;;;;33.83;15.50;;;8.20;99.90;;;;;;5101354;28;20120;-74
2023/10/18 08:53:25;;;;;;;31.23;15.95;;;8.20;99.90;;;;;;5111052;28;20156;-74
2023/10/18 08:55:57;;;;;;;38.77;16.50;;;8.30;99.90;;;;;;5110424;28;20031;-75
2023/10/18 08:58:33;;;;;;;32.72;15.25;;;8.40;99.90;;;;;;5099622;28;20032;-75
2023/10/18 09:03:27;;;;;;;32.70;15.93;;;8.50;99.90;;;;;;5111241;28;20468;-75
2023/10/18 09:06:04;;;;;;;31.30;14.77;;;8.60;99.90;;;;;;5091749;28;20028;-76
2023/10/18 09:08:42;;;;;;;27.40;14.40;;;8.60;99.90;;;;;;5081577;28;20511;-74
2023/10/18 09:11:20;;;;;;;29.25;14.77;;;8.70;99.90;;;;;;5109938;28;20842;-75
2023/10/18 09:14:07;;;;;;;31.55;14.88;;;8.70;99.90;;;;;;5110478;28;20080;-73
2023/10/18 09:16:37;;;;;;;31.83;15.25;;;8.80;99.90;;;;;;5110403;28;20027;-75
2023/10/18 09:19:04;;;;;;;25.73;13.32;;;8.90;99.90;;;;;;5110152;28;20055;-74
2023/10/18 09:21:57;;;;;;;29.80;14.10;;;9.00;99.90;;;;;;5110045;28;20047;-74
2023/10/18 09:24:23;;;;;;;25.70;13.95;;;9.10;99.90;;;;;;5109671;28;20032;-75
2023/10/18 09:26:50;;;;;;;28.88;13.85;;;9.30;99.90;;;;;;5109519;28;20066;-73
2023/10/18 09:29:17;;;;;;;26.75;13.68;;;9.50;99.90;;;;;;5110537;28;20039;-73
2023/10/18 09:32:03;;;;;;;27.25;13.95;;;9.70;99.90;;;;;;5110137;28;20027;-75
2023/10/18 09:34:50;;;;;;;28.38;13.13;;;9.80;99.90;;;;;;5110551;28;20036;-74
2023/10/18 09:37:27;;;;;;;25.33;12.77;;;10.00;99.90;;;;;;5109850;28;20040;-75
2023/10/18 09:39:56;;;;;;;25.48;13.30;;;10.20;99.90;;;;;;5109398;28;20051;-75
2023/10/18 09:42:22;;;;;;;27.80;12.75;;;10.30;99.90;;;;;;5110103;28;20027;-75
2023/10/18 09:44:47;;;;;;;28.45;13.15;;;10.50;99.90;;;;;;5109525;28;20043;-73
2023/10/18 09:47:13;;;;;;;24.70;13.52;;;10.50;99.90;;;;;;5109843;28;20106;-75
2023/10/18 09:49:43;;;;;;;29.23;13.55;;;10.50;99.90;;;;;;5125726;27;20179;-75
2023/10/18 09:52:12;;;;;;;28.83;13.93;;;10.30;99.90;;;;;;5109135;28;20069;-72
2023/10/18 09:54:51;;;;;;;26.25;13.32;;;10.30;99.90;;;;;;5110063;28;20258;-74
2023/10/18 09:57:23;;;;;;;26.00;12.73;;;10.30;99.90;;;;;;5109680;28;20055;-75
2023/10/18 10:00:08;;;;;;;27.30;13.55;;;10.40;99.90;;;;;;5104352;28;20114;-74
2023/10/18 10:02:36;;;;;;;34.97;15.45;;;10.40;99.90;;;;;;5089657;28;20032;-75
2023/10/18 10:05:06;;;;;;;23.23;12.73;;;10.70;99.90;;;;;;5088770;28;20024;-75
2023/10/18 10:07:41;;;;;;;21.55;12.25;;;11.00;99.90;;;;;;5089308;28;20357;-74
2023/10/18 10:10:09;;;;;;;21.60;11.80;;;10.90;99.90;;;;;;5093031;28;20031;-75
2023/10/18 10:12:42;;;;;;;22.85;11.80;;;11.10;99.90;;;;;;5109838;28;20096;-75
2023/10/18 10:15:13;;;;;;;19.48;11.38;;;11.30;99.90;;;;;;5109026;28;20103;-74
2023/10/18 10:17:42;;;;;;;18.42;10.75;;;11.30;99.90;;;;;;5109013;28;20551;-75
2023/10/18 10:20:13;;;;;;;18.98;10.38;;;11.60;99.90;;;;;;5118696;27;20632;-75
2023/10/18 10:22:41;;;;;;;18.58;10.43;;;11.70;99.90;;;;;;5109737;28;20039;-75
2023/10/18 10:25:18;;;;;;;19.65;10.73;;;11.90;99.90;;;;;;5108690;28;20027;-75
2023/10/18 10:27:49;;;;;;;18.55;9.82;;;11.80;99.90;;;;;;5109450;28;20721;-74
2023/10/18 10:30:37;;;;;;;19.25;10.30;;;12.00;99.90;;;;;;5109115;28;20468;-75
2023/10/18 10:33:05;;;;;;;23.63;11.02;;;12.20;99.90;;;;;;5107499;28;20039;-76
2023/10/18 10:35:35;;;;;;;22.90;10.68;;;12.50;99.90;;;;;;5109231;28;20027;-75
2023/10/18 10:38:01;;;;;;;23.27;11.25;;;12.60;99.90;;;;;;5108147;28;20028;-75
2023/10/18 10:43:12;;;;;;;17.52;10.57;;;12.50;99.90;;;;;;5108654;28;20476;-76
2023/10/18 10:45:38;;;;;;;19.08;10.07;;;12.60;99.90;;;;;;5109152;28;20039;-75
2023/10/18 10:48:37;;;;;;;22.08;10.60;;;12.90;99.90;;;;;;5108186;28;20039;-74
2023/10/18 10:51:20;;;;;;;21.95;9.93;;;12.80;99.90;;;;;;5106952;28;20059;-76
2023/10/18 10:53:54;;;;;;;18.55;10.27;;;12.90;99.90;;;;;;5109063;28;20012;-76
2023/10/18 10:56:30;;;;;;;16.42;9.95;;;12.90;99.90;;;;;;5090865;28;20031;-76
2023/10/18 11:04:49;;;;;;;19.80;11.57;;;13.30;99.90;;;;;;5109221;28;20043;-76
2023/10/18 11:07:22;;;;;;;16.08;9.23;;;13.40;99.90;;;;;;5124108;28;20035;-75
2023/10/18 11:09:48;;;;;;;16.98;8.68;;;13.50;99.90;;;;;;5090776;28;20039;-76
2023/10/18 11:12:14;;;;;;;17.05;9.55;;;13.50;99.90;;;;;;5108329;28;20031;-76
2023/10/18 11:14:43;;;;;;;16.25;9.23;;;13.50;99.90;;;;;;5109238;28;20136;-76
2023/10/18 11:19:41;;;;;;;15.95;9.73;;;13.40;99.90;;;;;;5108701;28;20054;-74
2023/10/18 11:22:11;;;;;;;17.08;8.88;;;13.70;99.90;;;;;;5108188;28;20038;-76
2023/10/18 11:24:39;;;;;;;18.38;9.43;;;14.00;99.90;;;;;;5108674;28;20070;-76
2023/10/18 11:27:08;;;;;;;15.65;8.18;;;14.00;99.90;;;;;;5108582;28;20130;-76
2023/10/18 11:29:38;;;;;;;15.10;8.93;;;13.90;99.90;;;;;;5108764;28;20035;-74
2023/10/18 11:32:06;;;;;;;15.13;8.48;;;14.20;99.90;;;;;;5108071;28;20027;-75
2023/10/18 11:34:33;;;;;;;14.40;8.93;;;14.60;99.90;;;;;;5109032;28;20015;-76
2023/10/18 11:37:02;;;;;;;16.75;9.55;;;14.70;99.90;;;;;;5108156;28;20122;-73
2023/10/18 11:39:34;;;;;;;14.43;8.87;;;14.80;99.90;;;;;;5123240;28;20039;-76
2023/10/18 11:42:00;;;;;;;15.77;8.95;;;14.70;99.90;;;;;;5108058;28;20478;-75
2023/10/18 11:44:28;;;;;;;16.63;9.20;;;14.30;99.90;;;;;;5108876;28;20034;-77
2023/10/18 11:47:20;;;;;;;17.27;9.07;;;14.30;99.90;;;;;;5108322;28;20050;-74
2023/10/18 11:49:48;;;;;;;14.18;8.35;;;14.20;99.90;;;;;;5109683;28;20140;-75
2023/10/18 11:52:17;;;;;;;;;;;14.40;99.90;;;;;;5112216;28;20038;-76
2023/10/18 11:54:44;;;;;;;15.32;8.40;;;14.70;99.90;;;;;;5112524;28;19992;-74
2023/10/18 11:57:34;;;;;;;13.25;8.55;;;14.90;99.90;;;;;;5111788;28;20104;-76
2023/10/18 12:02:45;;;;;;;19.30;8.48;;;14.60;99.90;;;;;;5112180;28;20131;-76
2023/10/18 12:05:14;;;;;;;13.50;7.45;;;14.50;99.90;;;;;;5111513;28;20031;-76
2023/10/18 12:07:44;;;;;;;13.48;7.97;;;14.80;99.90;;;;;;5111793;28;20437;-76
2023/10/18 12:10:46;;;;;;;14.75;8.40;;;15.10;99.90;;;;;;5111383;28;20024;-76
2023/10/18 12:13:11;;;;;;;15.00;7.65;;;15.10;99.90;;;;;;5105114;28;20138;-77
2023/10/18 12:15:38;;;;;;;11.57;7.53;;;15.50;99.90;;;;;;5114393;27;20035;-76
2023/10/18 12:18:05;;;;;;;17.48;7.88;;;15.90;99.90;;;;;;5110657;28;20048;-77
2023/10/18 12:20:42;;;;;;;17.55;8.55;;;16.10;99.90;;;;;;5111786;28;20079;-77
2023/10/18 12:23:21;;;;;;;13.45;8.15;;;15.70;99.90;;;;;;5092631;28;20558;-77
2023/10/18 12:25:47;;;;;;;11.80;7.40;;;15.60;99.90;;;;;;5111997;28;20026;-76
2023/10/18 12:28:18;;;;;;;12.88;6.53;;;15.40;99.90;;;;;;5110942;28;20028;-77
2023/10/18 12:30:51;;;;;;;13.95;7.90;;;15.30;99.90;;;;;;5093569;28;20386;-77
2023/10/18 12:33:27;;;;;;;12.57;8.02;;;15.10;99.90;;;;;;5093264;28;20130;-77
2023/10/18 12:35:56;;;;;;;15.20;8.32;;;14.80;99.90;;;;;;5111810;28;20029;-76
2023/10/18 12:38:31;;;;;;;14.20;8.02;;;14.80;99.90;;;;;;5110992;28;20032;-75
2023/10/18 12:41:17;;;;;;;13.35;6.90;;;15.10;99.90;;;;;;5111144;28;20028;-73
2023/10/18 12:43:46;;;;;;;12.43;6.57;;;15.30;99.90;;;;;;5111204;28;20055;-76
2023/10/18 12:46:21;;;;;;;15.73;7.43;;;15.30;99.90;;;;;;5110457;28;20056;-77
2023/10/18 12:48:51;;;;;;;15.57;6.97;;;15.20;99.90;;;;;;5109242;28;20054;-74
2023/10/18 12:51:18;;;;;;;13.43;7.47;;;15.10;99.90;;;;;;5110424;28;20027;-76
2023/10/18 12:53:48;;;;;;;13.43;7.70;;;14.90;99.90;;;;;;5111151;28;20097;-76
2023/10/18 12:58:54;;;;;;;14.80;8.43;;;14.70;99.90;;;;;;5110830;28;20829;-77
2023/10/18 13:04:19;;;;;;;15.88;7.65;;;14.60;99.90;;;;;;5100601;28;20048;-77
2023/10/18 13:06:46;;;;;;;14.00;8.60;;;14.40;99.90;;;;;;5111223;28;20019;-77
2023/10/18 13:09:16;;;;;;;15.38;8.00;;;14.30;99.90;;;;;;5109593;28;20459;-77
2023/10/18 13:11:46;;;;;;;11.10;7.03;;;14.30;99.90;;;;;;5092326;28;20028;-77
2023/10/18 13:14:23;;;;;;;11.88;7.53;;;14.30;99.90;;;;;;5110244;28;20451;-78
2023/10/18 13:16:49;;;;;;;15.38;8.95;;;14.30;99.90;;;;;;5106756;28;20043;-77
2023/10/18 13:19:15;;;;;;;21.70;8.60;;;14.30;99.90;;;;;;5109799;28;20036;-78
2023/10/18 13:21:43;;;;;;;16.23;8.50;;;14.30;99.90;;;;;;5110905;28;20062;-77
2023/10/18 13:26:53;;;;;;;16.20;8.82;;;14.30;99.90;;;;;;5090415;28;20034;-78
2023/10/18 13:31:45;;;;;;;13.20;7.70;;;14.00;99.90;;;;;;5090080;28;20060;-76
2023/10/18 13:34:20;;;;;;;16.77;8.30;;;13.90;99.90;;;;;;5105593;28;20031;-78
2023/10/18 13:36:47;;;;;;;14.48;7.40;;;13.90;99.90;;;;;;5094592;28;20034;-78
2023/10/18 13:39:17;;;;;;;13.07;8.00;;;13.90;99.90;;;;;;5109630;28;20069;-77
2023/10/18 13:41:47;;;;;;;13.40;8.20;;;13.90;99.90;;;;;;5110790;28;20521;-77
2023/10/18 13:44:19;;;;;;;29.70;7.78;;;14.00;99.90;;;;;;5109621;28;20153;-77
2023/10/18 13:46:47;;;;;;;14.75;7.15;;;14.00;99.90;;;;;;5109765;28;20114;-76
2023/10/18 13:49:13;;;;;;;16.20;7.78;;;13.90;99.90;;;;;;5108742;28;20436;-78
2023/10/18 13:51:41;;;;;;;14.45;6.75;;;13.90;99.90;;;;;;5108295;28;20032;-79
2023/10/18 13:54:12;;;;;;;12.90;6.80;;;13.90;99.90;;;;;;5107971;28;20024;-79
2023/10/18 13:56:38;;;;;;;16.20;7.35;;;13.90;99.90;;;;;;5125592;27;20051;-78
2023/10/18 13:59:04;;;;;;;17.13;7.93;;;13.80;99.90;;;;;;5109312;28;20059;-72
2023/10/18 14:01:31;;;;;;;16.95;7.03;;;13.70;99.90;;;;;;5109623;28;20063;-79
2023/10/18 14:03:59;;;;;;;16.70;8.13;;;13.60;99.90;;;;;;5109590;28;20039;-79
2023/10/18 14:06:25;;;;;;;11.85;7.82;;;13.60;99.90;;;;;;5090550;28;20076;-77